CEB336 RPLL-RPVI
Flight info
| Callsign | CEB336 |
|---|---|
| Flight time | 0h 50m |
| Altitude | 29000 |
| Route | VERDE2V VERDE A461 SAJ W3 BEDER BEDER1S |
| Aircraft | A21N/M-SDE2E3FGHIRWXY/LB1 |
Departure
| Time | 2026-05-05 15:14 |
|---|---|
| Airport | Ninoy Aquino International Airport (RPLL) |
Arrival
| Time | 2026-05-05 16:05 |
|---|---|
| Airport | Iloilo International Airport (RPVI) |
| Time | Latitude | Longitude | Altitude | Speed | Heading |
|---|---|---|---|---|---|
| 2026-05-05 14:47 | 14.52393 | 121.00768 | 84 ft | 0 kts | 44° |
| 2026-05-05 15:05 | 14.52380 | 121.00753 | 84 ft | 2 kts | 48° |
| 2026-05-05 15:05 | 14.52370 | 121.00742 | 84 ft | 2 kts | 46° |
| 2026-05-05 15:05 | 14.52360 | 121.00730 | 84 ft | 2 kts | 47° |
| 2026-05-05 15:06 | 14.52350 | 121.00719 | 84 ft | 2 kts | 47° |
| 2026-05-05 15:06 | 14.52340 | 121.00708 | 84 ft | 2 kts | 47° |
| 2026-05-05 15:06 | 14.52331 | 121.00697 | 84 ft | 0 kts | 47° |
| 2026-05-05 15:06 | 14.52327 | 121.00693 | 84 ft | 0 kts | 12° |
| 2026-05-05 15:07 | 14.52320 | 121.00694 | 84 ft | 0 kts | 318° |
| 2026-05-05 15:07 | 14.52316 | 121.00699 | 84 ft | 1 kts | 313° |
| 2026-05-05 15:07 | 14.52315 | 121.00700 | 84 ft | 0 kts | 314° |
| 2026-05-05 15:10 | 14.52319 | 121.00696 | 84 ft | 1 kts | 315° |
| 2026-05-05 15:10 | 14.52332 | 121.00684 | 84 ft | 3 kts | 317° |
| 2026-05-05 15:10 | 14.52353 | 121.00662 | 84 ft | 4 kts | 315° |
| 2026-05-05 15:10 | 14.52382 | 121.00633 | 84 ft | 6 kts | 314° |
| 2026-05-05 15:11 | 14.52417 | 121.00596 | 84 ft | 8 kts | 315° |
| 2026-05-05 15:11 | 14.52461 | 121.00551 | 84 ft | 9 kts | 315° |
| 2026-05-05 15:11 | 14.52513 | 121.00497 | 84 ft | 11 kts | 315° |
| 2026-05-05 15:11 | 14.52545 | 121.00423 | 84 ft | 12 kts | 271° |
| 2026-05-05 15:12 | 14.52541 | 121.00348 | 84 ft | 0 kts | 267° |
| 2026-05-05 15:12 | 14.52540 | 121.00340 | 84 ft | 2 kts | 267° |
| 2026-05-05 15:12 | 14.52539 | 121.00314 | 84 ft | 5 kts | 266° |
| 2026-05-05 15:13 | 14.52532 | 121.00270 | 84 ft | 7 kts | 237° |
| 2026-05-05 15:13 | 14.52482 | 121.00288 | 84 ft | 13 kts | 140° |
| 2026-05-05 15:13 | 14.52249 | 121.00527 | 84 ft | 86 kts | 134° |
| 2026-05-05 15:13 | 14.51664 | 121.01132 | 85 ft | 150 kts | 134° |
| 2026-05-05 15:14 | 14.50858 | 121.01957 | 498 ft | 166 kts | 133° |
| 2026-05-05 15:14 | 14.50056 | 121.02801 | 1150 ft | 172 kts | 133° |
| 2026-05-05 15:14 | 14.49210 | 121.03697 | 1833 ft | 180 kts | 131° |
| 2026-05-05 15:14 | 14.48368 | 121.04638 | 2378 ft | 181 kts | 131° |
| 2026-05-05 15:15 | 14.47460 | 121.05592 | 2689 ft | 195 kts | 133° |
| 2026-05-05 15:15 | 14.46448 | 121.06612 | 3034 ft | 207 kts | 134° |
| 2026-05-05 15:15 | 14.45406 | 121.07670 | 3378 ft | 219 kts | 133° |
| 2026-05-05 15:15 | 14.44280 | 121.08796 | 3783 ft | 231 kts | 138° |
| 2026-05-05 15:16 | 14.42787 | 121.09507 | 4097 ft | 253 kts | 171° |
| 2026-05-05 15:16 | 14.40955 | 121.09506 | 4490 ft | 269 kts | 184° |
| 2026-05-05 15:16 | 14.39053 | 121.09294 | 4923 ft | 283 kts | 186° |
| 2026-05-05 15:16 | 14.37084 | 121.09068 | 5552 ft | 289 kts | 185° |
| 2026-05-05 15:17 | 14.35088 | 121.08871 | 6277 ft | 291 kts | 184° |
| 2026-05-05 15:17 | 14.33079 | 121.08702 | 6955 ft | 294 kts | 184° |
| 2026-05-05 15:17 | 14.31015 | 121.08543 | 7639 ft | 298 kts | 184° |
| 2026-05-05 15:17 | 14.28966 | 121.08394 | 8318 ft | 301 kts | 184° |
| 2026-05-05 15:18 | 14.26854 | 121.08249 | 9018 ft | 303 kts | 185° |
| 2026-05-05 15:18 | 14.24750 | 121.08105 | 9701 ft | 306 kts | 185° |
| 2026-05-05 15:18 | 14.22636 | 121.07961 | 10347 ft | 309 kts | 185° |
| 2026-05-05 15:18 | 14.20454 | 121.07813 | 10692 ft | 323 kts | 186° |
| 2026-05-05 15:19 | 14.18137 | 121.07657 | 10978 ft | 339 kts | 186° |
| 2026-05-05 15:19 | 14.15758 | 121.07497 | 11424 ft | 347 kts | 186° |
| 2026-05-05 15:19 | 14.13349 | 121.07339 | 12080 ft | 349 kts | 186° |
| 2026-05-05 15:19 | 14.10959 | 121.07181 | 12730 ft | 350 kts | 186° |
| 2026-05-05 15:20 | 14.08513 | 121.07018 | 13308 ft | 354 kts | 186° |
| 2026-05-05 15:20 | 14.06058 | 121.06854 | 13866 ft | 358 kts | 185° |
| 2026-05-05 15:20 | 14.03579 | 121.06690 | 14424 ft | 361 kts | 185° |
| 2026-05-05 15:20 | 14.01047 | 121.06522 | 14982 ft | 365 kts | 185° |
| 2026-05-05 15:21 | 13.98514 | 121.06355 | 15526 ft | 368 kts | 185° |
| 2026-05-05 15:21 | 13.95976 | 121.06187 | 16059 ft | 372 kts | 185° |
| 2026-05-05 15:21 | 13.93393 | 121.06017 | 16589 ft | 375 kts | 185° |
| 2026-05-05 15:21 | 13.90773 | 121.05844 | 17118 ft | 378 kts | 185° |
| 2026-05-05 15:22 | 13.88166 | 121.05673 | 17629 ft | 381 kts | 184° |
| 2026-05-05 15:22 | 13.85494 | 121.05498 | 18137 ft | 384 kts | 184° |
| 2026-05-05 15:22 | 13.82840 | 121.05325 | 18632 ft | 386 kts | 184° |
| 2026-05-05 15:22 | 13.80147 | 121.05148 | 19121 ft | 389 kts | 184° |
| 2026-05-05 15:23 | 13.77451 | 121.04970 | 19593 ft | 392 kts | 184° |
| 2026-05-05 15:23 | 13.74722 | 121.04791 | 20064 ft | 394 kts | 184° |
| 2026-05-05 15:23 | 13.71977 | 121.04610 | 20523 ft | 397 kts | 184° |
| 2026-05-05 15:23 | 13.69224 | 121.04428 | 20968 ft | 399 kts | 184° |
| 2026-05-05 15:24 | 13.66429 | 121.04244 | 21415 ft | 402 kts | 184° |
| 2026-05-05 15:24 | 13.63660 | 121.04061 | 21843 ft | 404 kts | 184° |
| 2026-05-05 15:24 | 13.60862 | 121.03876 | 22261 ft | 406 kts | 184° |
| 2026-05-05 15:24 | 13.58049 | 121.03691 | 22676 ft | 408 kts | 183° |
| 2026-05-05 15:25 | 13.55197 | 121.03503 | 23078 ft | 410 kts | 183° |
| 2026-05-05 15:25 | 13.52363 | 121.03316 | 23469 ft | 412 kts | 183° |
| 2026-05-05 15:25 | 13.49491 | 121.03202 | 23855 ft | 414 kts | 180° |
| 2026-05-05 15:25 | 13.46637 | 121.03213 | 24230 ft | 416 kts | 179° |
| 2026-05-05 15:26 | 13.43738 | 121.03246 | 24605 ft | 418 kts | 179° |
| 2026-05-05 15:26 | 13.40829 | 121.03281 | 24971 ft | 420 kts | 179° |
| 2026-05-05 15:26 | 13.37930 | 121.03313 | 25324 ft | 422 kts | 179° |
| 2026-05-05 15:26 | 13.34980 | 121.03343 | 25671 ft | 424 kts | 179° |
| 2026-05-05 15:27 | 13.32036 | 121.03371 | 26007 ft | 425 kts | 179° |
| 2026-05-05 15:27 | 13.29104 | 121.03400 | 26337 ft | 427 kts | 179° |
| 2026-05-05 15:27 | 13.26292 | 121.03428 | 26644 ft | 429 kts | 179° |
| 2026-05-05 15:27 | 13.23322 | 121.03459 | 26958 ft | 430 kts | 178° |
| 2026-05-05 15:28 | 13.20334 | 121.03492 | 27270 ft | 432 kts | 178° |
| 2026-05-05 15:28 | 13.17354 | 121.03525 | 27574 ft | 433 kts | 178° |
| 2026-05-05 15:28 | 13.14332 | 121.03557 | 27871 ft | 435 kts | 178° |
| 2026-05-05 15:28 | 13.11301 | 121.03588 | 28170 ft | 437 kts | 178° |
| 2026-05-05 15:29 | 13.08263 | 121.03621 | 28433 ft | 439 kts | 179° |
| 2026-05-05 15:29 | 13.05204 | 121.03655 | 28654 ft | 443 kts | 179° |
| 2026-05-05 15:29 | 13.02122 | 121.03690 | 28872 ft | 445 kts | 180° |
| 2026-05-05 15:30 | 12.96013 | 121.03742 | 28953 ft | 435 kts | 179° |
| 2026-05-05 15:30 | 12.90014 | 121.03798 | 28986 ft | 432 kts | 179° |
| 2026-05-05 15:31 | 12.84013 | 121.03857 | 29005 ft | 432 kts | 179° |
| 2026-05-05 15:31 | 12.78012 | 121.03915 | 29014 ft | 432 kts | 179° |
| 2026-05-05 15:32 | 12.72019 | 121.03973 | 29018 ft | 432 kts | 179° |
| 2026-05-05 15:32 | 12.66010 | 121.04032 | 29020 ft | 432 kts | 179° |
| 2026-05-05 15:33 | 12.60015 | 121.04090 | 29020 ft | 432 kts | 179° |
| 2026-05-05 15:33 | 12.54007 | 121.04147 | 29020 ft | 432 kts | 179° |
| 2026-05-05 15:34 | 12.48012 | 121.04203 | 29020 ft | 432 kts | 179° |
| 2026-05-05 15:34 | 12.42020 | 121.04261 | 29020 ft | 432 kts | 179° |
| 2026-05-05 15:35 | 12.36703 | 121.05130 | 29014 ft | 438 kts | 160° |
| 2026-05-05 15:35 | 12.33978 | 121.06529 | 28993 ft | 443 kts | 147° |
| 2026-05-05 15:35 | 12.31577 | 121.08498 | 28980 ft | 444 kts | 139° |
| 2026-05-05 15:36 | 12.27127 | 121.12790 | 28950 ft | 441 kts | 137° |
| 2026-05-05 15:36 | 12.22690 | 121.17100 | 28938 ft | 438 kts | 137° |
| 2026-05-05 15:37 | 12.18266 | 121.21352 | 28934 ft | 437 kts | 137° |
| 2026-05-05 15:37 | 12.13850 | 121.25581 | 28932 ft | 436 kts | 137° |
| 2026-05-05 15:38 | 12.09406 | 121.29829 | 28932 ft | 436 kts | 137° |
| 2026-05-05 15:38 | 12.07184 | 121.31950 | 28801 ft | 436 kts | 137° |
| 2026-05-05 15:38 | 12.04992 | 121.34045 | 28552 ft | 434 kts | 137° |
| 2026-05-05 15:38 | 12.02799 | 121.36137 | 28303 ft | 432 kts | 137° |
| 2026-05-05 15:39 | 12.00618 | 121.38218 | 28053 ft | 430 kts | 137° |
| 2026-05-05 15:39 | 11.98427 | 121.40308 | 27802 ft | 429 kts | 137° |
| 2026-05-05 15:39 | 11.96275 | 121.42360 | 27554 ft | 427 kts | 137° |
| 2026-05-05 15:39 | 11.94106 | 121.44428 | 27304 ft | 426 kts | 137° |
| 2026-05-05 15:40 | 11.91931 | 121.46500 | 27052 ft | 424 kts | 138° |
| 2026-05-05 15:40 | 11.89799 | 121.48532 | 26804 ft | 423 kts | 138° |
| 2026-05-05 15:40 | 11.87435 | 121.50773 | 26528 ft | 421 kts | 138° |
| 2026-05-05 15:40 | 11.85239 | 121.52850 | 26272 ft | 420 kts | 138° |
| 2026-05-05 15:41 | 11.83114 | 121.54864 | 26023 ft | 418 kts | 138° |
| 2026-05-05 15:41 | 11.80980 | 121.56891 | 25771 ft | 417 kts | 138° |
| 2026-05-05 15:41 | 11.78876 | 121.58892 | 25520 ft | 415 kts | 138° |
| 2026-05-05 15:41 | 11.76769 | 121.60897 | 25259 ft | 414 kts | 138° |
| 2026-05-05 15:42 | 11.74662 | 121.62901 | 24979 ft | 412 kts | 138° |
| 2026-05-05 15:42 | 11.72586 | 121.64875 | 24606 ft | 410 kts | 138° |
| 2026-05-05 15:42 | 11.70528 | 121.66841 | 24180 ft | 407 kts | 138° |
| 2026-05-05 15:42 | 11.68463 | 121.68818 | 23725 ft | 404 kts | 138° |
| 2026-05-05 15:43 | 11.66416 | 121.70771 | 23262 ft | 401 kts | 138° |
| 2026-05-05 15:43 | 11.64410 | 121.72684 | 22802 ft | 398 kts | 138° |
| 2026-05-05 15:43 | 11.62379 | 121.74618 | 22330 ft | 396 kts | 138° |
| 2026-05-05 15:43 | 11.60388 | 121.76512 | 21864 ft | 393 kts | 138° |
| 2026-05-05 15:44 | 11.58376 | 121.78423 | 21391 ft | 391 kts | 138° |
| 2026-05-05 15:44 | 11.56410 | 121.80288 | 20928 ft | 388 kts | 138° |
| 2026-05-05 15:44 | 11.54451 | 121.82146 | 20464 ft | 386 kts | 138° |
| 2026-05-05 15:44 | 11.52503 | 121.83992 | 20003 ft | 384 kts | 138° |
| 2026-05-05 15:45 | 11.50554 | 121.85841 | 19539 ft | 381 kts | 138° |
| 2026-05-05 15:45 | 11.48623 | 121.87673 | 19078 ft | 379 kts | 138° |
| 2026-05-05 15:45 | 11.46695 | 121.89508 | 18614 ft | 377 kts | 138° |
| 2026-05-05 15:45 | 11.44802 | 121.91309 | 18159 ft | 375 kts | 138° |
| 2026-05-05 15:46 | 11.42897 | 121.93121 | 17699 ft | 373 kts | 138° |
| 2026-05-05 15:46 | 11.40990 | 121.94932 | 17240 ft | 371 kts | 138° |
| 2026-05-05 15:46 | 11.39115 | 121.96711 | 16785 ft | 369 kts | 138° |
| 2026-05-05 15:46 | 11.37266 | 121.98464 | 16336 ft | 366 kts | 138° |
| 2026-05-05 15:47 | 11.35389 | 122.00243 | 15880 ft | 364 kts | 139° |
| 2026-05-05 15:47 | 11.34168 | 122.01401 | 15583 ft | 363 kts | 139° |
| 2026-05-05 15:47 | 11.31717 | 122.03722 | 14986 ft | 360 kts | 139° |
| 2026-05-05 15:47 | 11.29890 | 122.05454 | 14539 ft | 358 kts | 139° |
| 2026-05-05 15:48 | 11.28082 | 122.07166 | 14096 ft | 356 kts | 139° |
| 2026-05-05 15:48 | 11.26290 | 122.08862 | 13657 ft | 354 kts | 139° |
| 2026-05-05 15:48 | 11.24474 | 122.10581 | 13212 ft | 352 kts | 139° |
| 2026-05-05 15:48 | 11.22688 | 122.12271 | 12950 ft | 349 kts | 139° |
| 2026-05-05 15:49 | 11.20896 | 122.13966 | 12928 ft | 350 kts | 139° |
| 2026-05-05 15:49 | 11.19122 | 122.15643 | 12925 ft | 351 kts | 139° |
| 2026-05-05 15:49 | 11.17341 | 122.17348 | 12922 ft | 351 kts | 135° |
| 2026-05-05 15:49 | 11.15958 | 122.19379 | 12911 ft | 354 kts | 114° |
| 2026-05-05 15:50 | 11.15290 | 122.21797 | 12924 ft | 355 kts | 101° |
| 2026-05-05 15:50 | 11.14911 | 122.24275 | 12923 ft | 355 kts | 98° |
| 2026-05-05 15:50 | 11.14585 | 122.26777 | 12918 ft | 349 kts | 98° |
| 2026-05-05 15:50 | 11.14284 | 122.29169 | 12811 ft | 336 kts | 98° |
| 2026-05-05 15:51 | 11.13996 | 122.31474 | 12626 ft | 326 kts | 98° |
| 2026-05-05 15:51 | 11.13714 | 122.33745 | 12445 ft | 316 kts | 98° |
| 2026-05-05 15:51 | 11.13445 | 122.35911 | 12266 ft | 306 kts | 98° |
| 2026-05-05 15:51 | 11.13183 | 122.38022 | 12076 ft | 298 kts | 98° |
| 2026-05-05 15:52 | 11.12925 | 122.40106 | 11860 ft | 290 kts | 97° |
| 2026-05-05 15:52 | 11.12674 | 122.42120 | 11532 ft | 288 kts | 97° |
| 2026-05-05 15:52 | 11.12418 | 122.44134 | 11147 ft | 288 kts | 97° |
| 2026-05-05 15:52 | 11.12154 | 122.46168 | 10783 ft | 286 kts | 97° |
| 2026-05-05 15:53 | 11.11887 | 122.48174 | 10429 ft | 284 kts | 97° |
| 2026-05-05 15:53 | 11.11619 | 122.50155 | 10075 ft | 283 kts | 97° |
| 2026-05-05 15:53 | 11.11343 | 122.52147 | 9719 ft | 282 kts | 97° |
| 2026-05-05 15:53 | 11.11066 | 122.54110 | 9487 ft | 275 kts | 97° |
| 2026-05-05 15:54 | 11.10797 | 122.55989 | 9321 ft | 266 kts | 97° |
| 2026-05-05 15:54 | 11.10528 | 122.57838 | 9144 ft | 257 kts | 97° |
| 2026-05-05 15:54 | 11.10180 | 122.59585 | 8988 ft | 248 kts | 103° |
| 2026-05-05 15:54 | 11.09733 | 122.61237 | 8789 ft | 241 kts | 101° |
| 2026-05-05 15:55 | 11.09444 | 122.62917 | 8450 ft | 240 kts | 98° |
| 2026-05-05 15:55 | 11.09217 | 122.64588 | 8089 ft | 240 kts | 84° |
| 2026-05-05 15:55 | 11.09700 | 122.66198 | 7609 ft | 238 kts | 53° |
| 2026-05-05 15:55 | 11.10883 | 122.67235 | 7389 ft | 217 kts | 20° |
| 2026-05-05 15:56 | 11.12281 | 122.67375 | 7183 ft | 199 kts | 345° |
| 2026-05-05 15:56 | 11.13402 | 122.66719 | 7016 ft | 182 kts | 310° |
| 2026-05-05 15:56 | 11.13829 | 122.65556 | 6776 ft | 174 kts | 270° |
| 2026-05-05 15:56 | 11.13428 | 122.64442 | 6501 ft | 171 kts | 237° |
| 2026-05-05 15:57 | 11.12665 | 122.63536 | 6184 ft | 168 kts | 230° |
| 2026-05-05 15:57 | 11.11835 | 122.62679 | 5747 ft | 170 kts | 228° |
| 2026-05-05 15:57 | 11.11004 | 122.61838 | 5297 ft | 168 kts | 228° |
| 2026-05-05 15:57 | 11.10203 | 122.61030 | 4891 ft | 163 kts | 228° |
| 2026-05-05 15:58 | 11.09408 | 122.60226 | 4434 ft | 161 kts | 228° |
| 2026-05-05 15:58 | 11.08619 | 122.59425 | 4075 ft | 159 kts | 228° |
| 2026-05-05 15:58 | 11.07835 | 122.58624 | 4019 ft | 161 kts | 228° |
| 2026-05-05 15:58 | 11.07037 | 122.57808 | 4011 ft | 162 kts | 228° |
| 2026-05-05 15:59 | 11.06240 | 122.56991 | 4007 ft | 162 kts | 228° |
| 2026-05-05 15:59 | 11.05446 | 122.56177 | 4005 ft | 162 kts | 227° |
| 2026-05-05 15:59 | 11.04486 | 122.55595 | 3976 ft | 165 kts | 189° |
| 2026-05-05 15:59 | 11.03363 | 122.55794 | 4003 ft | 166 kts | 159° |
| 2026-05-05 16:00 | 11.02242 | 122.56040 | 4016 ft | 167 kts | 182° |
| 2026-05-05 16:00 | 11.01108 | 122.55865 | 3946 ft | 165 kts | 195° |
| 2026-05-05 16:00 | 11.00007 | 122.55532 | 3866 ft | 165 kts | 200° |
| 2026-05-05 16:00 | 10.98922 | 122.55138 | 3664 ft | 165 kts | 202° |
| 2026-05-05 16:01 | 10.97851 | 122.54726 | 3358 ft | 165 kts | 203° |
| 2026-05-05 16:01 | 10.96789 | 122.54313 | 2973 ft | 163 kts | 201° |
| 2026-05-05 16:01 | 10.95733 | 122.53937 | 2627 ft | 162 kts | 200° |
| 2026-05-05 16:01 | 10.94667 | 122.53549 | 2335 ft | 162 kts | 200° |
| 2026-05-05 16:02 | 10.93610 | 122.53153 | 2045 ft | 161 kts | 200° |
| 2026-05-05 16:02 | 10.92572 | 122.52765 | 1764 ft | 160 kts | 200° |
| 2026-05-05 16:02 | 10.91518 | 122.52387 | 1526 ft | 160 kts | 198° |
| 2026-05-05 16:02 | 10.90474 | 122.52006 | 1279 ft | 160 kts | 204° |
| 2026-05-05 16:03 | 10.89433 | 122.51595 | 1117 ft | 160 kts | 196° |
| 2026-05-05 16:03 | 10.88388 | 122.51234 | 964 ft | 159 kts | 203° |
| 2026-05-05 16:03 | 10.87359 | 122.50834 | 811 ft | 159 kts | 198° |
| 2026-05-05 16:03 | 10.86315 | 122.50454 | 656 ft | 159 kts | 198° |
| 2026-05-05 16:04 | 10.85277 | 122.50067 | 377 ft | 157 kts | 199° |
| 2026-05-05 16:04 | 10.84252 | 122.49690 | 213 ft | 157 kts | 199° |
| 2026-05-05 16:04 | 10.83283 | 122.49333 | 175 ft | 131 kts | 200° |
| 2026-05-05 16:04 | 10.82588 | 122.49077 | 175 ft | 81 kts | 201° |
| 2026-05-05 16:05 | 10.82238 | 122.48978 | 175 ft | 21 kts | 201° |
| 2026-05-05 16:05 | 10.82254 | 122.48937 | 175 ft | 8 kts | 35° |
| 2026-05-05 16:05 | 10.82310 | 122.48969 | 175 ft | 10 kts | 25° |
| 2026-05-05 16:05 | 10.82380 | 122.48997 | 175 ft | 11 kts | 19° |
| 2026-05-05 16:06 | 10.82460 | 122.49025 | 175 ft | 12 kts | 20° |
| 2026-05-05 16:06 | 10.82546 | 122.49057 | 175 ft | 13 kts | 20° |
| 2026-05-05 16:06 | 10.82638 | 122.49091 | 175 ft | 14 kts | 21° |
| 2026-05-05 16:06 | 10.82741 | 122.49130 | 175 ft | 17 kts | 20° |
| 2026-05-05 16:07 | 10.82854 | 122.49171 | 175 ft | 17 kts | 20° |
| 2026-05-05 16:07 | 10.82969 | 122.49213 | 175 ft | 17 kts | 20° |
| 2026-05-05 16:07 | 10.83079 | 122.49268 | 175 ft | 17 kts | 57° |
| 2026-05-05 16:07 | 10.83062 | 122.49384 | 175 ft | 17 kts | 111° |
| 2026-05-05 16:08 | 10.83034 | 122.49505 | 175 ft | 17 kts | 74° |
| 2026-05-05 16:08 | 10.83079 | 122.49562 | 175 ft | 9 kts | 92° |
| 2026-05-05 16:08 | 10.83057 | 122.49618 | 175 ft | 3 kts | 110° |
| 2026-05-05 16:08 | 10.83054 | 122.49625 | 175 ft | 0 kts | 110° |